Time;durP1;ratioP1;P1;durP2;ratioP2;P2;SDS_P1;SDS_P2;PMS_P1;PMS_P2;Temp;Humidity;BMP_temperature;BMP_pressure;BME280_temperature;BME280_humidity;BME280_pressure;Samples;Min_cycle;Max_cycle;Signal;HPM_P1;HPM_P2
2023/10/14 00:01:30;;;;;;;0.00;0.00;;;;;;;7.65;100.00;99845.78;4950262;28;20034;-77
2023/10/14 00:03:56;;;;;;;0.00;0.00;;;;;;;7.65;100.00;99850.38;4932171;28;20042;-77
2023/10/14 00:06:22;;;;;;;0.00;0.00;;;;;;;7.73;100.00;99877.13;4957573;28;20057;-78
2023/10/14 00:08:55;;;;;;;0.00;0.00;;;;;;;7.74;100.00;99872.50;4960796;28;20030;-79
2023/10/14 00:11:21;;;;;;;0.00;0.00;;;;;;;7.75;100.00;99879.59;4958843;28;20110;-80
2023/10/14 00:13:52;;;;;;;0.00;0.00;;;;;;;7.66;100.00;99868.38;4962971;28;21101;-78
2023/10/14 00:19:03;;;;;;;0.00;0.00;;;;;;;7.64;100.00;99884.94;4968138;28;20030;-78
2023/10/14 00:21:29;;;;;;;0.00;0.00;;;;;;;7.64;100.00;99889.59;4950262;28;20034;-80
2023/10/14 00:23:57;;;;;;;0.00;0.00;;;;;;;7.54;100.00;99878.63;4950261;28;20034;-79
2023/10/14 00:26:27;;;;;;;0.10;0.10;;;;;;;7.57;100.00;99884.34;4937574;28;20039;-79
2023/10/14 00:29:10;;;;;;;0.00;0.00;;;;;;;7.59;100.00;99890.34;4933698;29;20390;-79
2023/10/14 00:31:36;;;;;;;0.00;0.00;;;;;;;7.70;100.00;99918.47;4945648;28;20117;-78
2023/10/14 00:34:01;;;;;;;0.00;0.00;;;;;;;7.58;100.00;99901.47;4942782;28;20034;-78
2023/10/14 00:36:31;;;;;;;0.00;0.00;;;;;;;7.69;100.00;99927.72;4910552;28;20035;-78
2023/10/14 00:38:57;;;;;;;0.00;0.00;;;;;;;7.65;100.00;99926.59;4928948;28;20026;-79
2023/10/14 00:41:29;;;;;;;0.00;0.00;;;;;;;7.67;100.00;99930.69;4946063;28;20509;-78
2023/10/14 00:43:56;;;;;;;0.00;0.00;;;;;;;7.58;100.00;99920.53;4968141;28;20081;-79
2023/10/14 00:46:23;;;;;;;0.00;0.00;;;;;;;7.60;100.00;99934.72;4944978;28;20117;-78
2023/10/14 00:48:58;;;;;;;0.00;0.00;;;;;;;7.60;100.00;99940.16;4936274;28;20031;-77
2023/10/14 00:51:29;;;;;;;0.00;0.00;;;;;;;7.58;100.00;99947.75;4930617;28;20042;-78
2023/10/14 00:54:02;;;;;;;0.10;0.10;;;;;;;7.58;100.00;99958.63;4957550;28;20101;-77
2023/10/14 00:56:28;;;;;;;0.00;0.00;;;;;;;7.56;100.00;99966.25;4962271;28;20081;-78
2023/10/14 00:59:06;;;;;;;0.00;0.00;;;;;;;7.49;100.00;99955.53;4950705;28;20453;-79
2023/10/14 01:01:31;;;;;;;0.00;0.00;;;;;;;7.64;100.00;99982.91;4964055;28;20057;-80
2023/10/14 01:04:17;;;;;;;0.00;0.00;;;;;;;7.61;100.00;99982.63;4942729;28;20473;-78
2023/10/14 01:12:17;;;;;;;0.00;0.00;;;;;;;7.55;100.00;99992.63;4942476;28;20035;-77
2023/10/14 01:14:46;;;;;;;0.00;0.00;;;;;;;7.57;100.00;100000.53;4968459;28;20093;-77
2023/10/14 01:17:31;;;;;;;0.00;0.00;;;;;;;7.59;100.00;100009.25;4929691;28;20106;-78
2023/10/14 01:20:18;;;;;;;0.00;0.00;;;;;;;7.57;100.00;100005.97;4921199;28;20069;-77
2023/10/14 01:23:06;;;;;;;0.00;0.00;;;;;;;7.57;100.00;100012.25;4946320;28;20069;-77
2023/10/14 01:25:32;;;;;;;0.00;0.00;;;;;;;7.58;100.00;100013.06;4934976;28;20031;-77
2023/10/14 01:27:59;;;;;;;0.00;0.00;;;;;;;7.51;100.00;100007.81;4933639;28;20397;-78
2023/10/14 01:30:26;;;;;;;0.00;0.00;;;;;;;7.56;100.00;100015.22;4958642;28;20037;-78
2023/10/14 01:32:52;;;;;;;0.00;0.00;;;;;;;7.48;100.00;100013.78;4943229;28;20109;-78
2023/10/14 01:37:51;;;;;;;0.00;0.00;;;;;;;7.51;100.00;100035.84;4961049;28;20389;-76
2023/10/14 01:42:56;;;;;;;0.00;0.00;;;;;;;7.51;100.00;100046.72;4947742;28;20034;-76
2023/10/14 01:45:31;;;;;;;0.00;0.00;;;;;;;7.47;100.00;100042.88;4964765;28;20026;-77
2023/10/14 01:50:40;;;;;;;0.00;0.00;;;;;;;7.47;100.00;100061.09;4965156;28;20027;-76
2023/10/14 01:53:10;;;;;;;0.00;0.00;;;;;;;7.49;100.00;100073.38;4946739;28;20057;-77
2023/10/14 01:55:37;;;;;;;0.00;0.00;;;;;;;7.43;100.00;100068.13;4938667;28;20038;-76
2023/10/14 01:58:03;;;;;;;0.00;0.00;;;;;;;7.32;100.00;100067.19;4950513;28;20031;-76
2023/10/14 02:00:36;;;;;;;0.10;0.10;;;;;;;7.25;100.00;100077.44;4964065;28;20029;-76
2023/10/14 02:03:07;;;;;;;0.00;0.00;;;;;;;7.11;100.00;100091.41;4961411;28;20023;-76
2023/10/14 02:05:42;;;;;;;0.00;0.00;;;;;;;6.91;100.00;100082.97;4963181;28;20022;-76
2023/10/14 02:08:16;;;;;;;0.00;0.00;;;;;;;6.84;100.00;100093.19;4947354;28;20058;-76
2023/10/14 02:10:46;;;;;;;0.00;0.00;;;;;;;6.76;100.00;100097.97;4960357;28;20035;-76
2023/10/14 02:13:18;;;;;;;0.10;0.10;;;;;;;6.72;100.00;100093.28;4947186;28;20470;-76
2023/10/14 02:15:47;;;;;;;0.00;0.00;;;;;;;6.66;100.00;100100.53;4968484;28;20034;-76
2023/10/14 02:18:20;;;;;;;0.00;0.00;;;;;;;6.66;100.00;100103.25;4950288;28;20049;-77
2023/10/14 02:20:56;;;;;;;0.00;0.00;;;;;;;6.59;100.00;100106.13;4958914;28;20034;-76
2023/10/14 02:23:30;;;;;;;0.00;0.00;;;;;;;6.60;100.00;100120.53;4964119;28;20094;-76
2023/10/14 02:26:08;;;;;;;0.10;0.10;;;;;;;6.55;100.00;100120.44;4961084;28;20105;-76
2023/10/14 02:28:46;;;;;;;0.00;0.00;;;;;;;6.47;100.00;100119.78;4935936;28;20066;-76
2023/10/14 02:31:29;;;;;;;0.00;0.00;;;;;;;6.42;100.00;100116.97;4961220;28;20097;-76
2023/10/14 02:34:04;;;;;;;0.00;0.00;;;;;;;6.44;100.00;100133.06;4939427;28;20854;-76
2023/10/14 02:36:29;;;;;;;0.00;0.00;;;;;;;6.37;100.00;100113.38;4950997;28;20019;-76
2023/10/14 02:38:56;;;;;;;0.00;0.00;;;;;;;6.49;100.00;100129.59;4948546;28;20038;-77
2023/10/14 02:41:26;;;;;;;0.10;0.10;;;;;;;6.53;100.00;100133.47;4932230;28;22390;-77
2023/10/14 02:44:20;;;;;;;0.10;0.10;;;;;;;6.53;100.00;100133.47;4963581;28;20061;-76
2023/10/14 02:46:45;;;;;;;0.00;0.00;;;;;;;6.47;100.00;100138.81;4964934;28;20034;-77
2023/10/14 02:49:14;;;;;;;0.00;0.00;;;;;;;6.50;100.00;100133.94;4933361;29;20434;-77
2023/10/14 02:51:44;;;;;;;0.00;0.00;;;;;;;6.51;100.00;100141.03;4944400;28;21382;-77
2023/10/14 02:57:13;;;;;;;0.00;0.00;;;;;;;6.42;100.00;100133.28;4941905;28;20114;-77
2023/10/14 02:59:48;;;;;;;0.00;0.00;;;;;;;6.38;100.00;100126.72;4949101;28;20022;-79
2023/10/14 03:02:25;;;;;;;0.00;0.00;;;;;;;6.34;100.00;100141.84;4935110;28;20027;-76
2023/10/14 03:05:08;;;;;;;0.00;0.00;;;;;;;6.35;100.00;100156.22;4968440;28;20061;-77
2023/10/14 03:07:43;;;;;;;0.10;0.10;;;;;;;6.32;100.00;100159.44;4939019;28;20023;-76
2023/10/14 03:12:39;;;;;;;0.00;0.00;;;;;;;6.11;100.00;100138.16;4969844;28;20481;-76
2023/10/14 03:15:18;;;;;;;0.00;0.00;;;;;;;6.23;100.00;100156.28;4948201;28;20113;-76
2023/10/14 03:18:04;;;;;;;0.00;0.00;;;;;;;6.17;100.00;100149.94;4951741;28;20126;-77
2023/10/14 03:20:40;;;;;;;0.00;0.00;;;;;;;6.17;100.00;100162.72;4951389;28;20085;-76
2023/10/14 03:23:18;;;;;;;0.00;0.00;;;;;;;6.14;100.00;100163.19;4945913;28;20096;-75
2023/10/14 03:25:45;;;;;;;0.00;0.00;;;;;;;6.08;100.00;100159.56;4966229;28;20109;-76
2023/10/14 03:30:38;;;;;;;0.00;0.00;;;;;;;5.97;100.00;100158.53;4969459;28;20129;-75
2023/10/14 03:33:10;;;;;;;0.00;0.00;;;;;;;5.94;100.00;100165.25;4948274;28;20038;-75
2023/10/14 03:35:41;;;;;;;0.00;0.00;;;;;;;5.85;100.00;100169.38;4951067;28;20031;-75
2023/10/14 03:38:33;;;;;;;0.00;0.00;;;;;;;5.89;100.00;100177.88;4959619;28;20050;-76
2023/10/14 03:41:03;;;;;;;0.00;0.00;;;;;;;5.81;100.00;100176.38;4965055;28;20109;-76
2023/10/14 03:46:23;;;;;;;0.00;0.00;;;;;;;5.88;100.00;100179.75;4951922;28;20043;-76
2023/10/14 03:48:55;;;;;;;0.00;0.00;;;;;;;5.90;100.00;100185.78;4954934;28;20377;-76
2023/10/14 03:51:24;;;;;;;0.00;0.00;;;;;;;5.94;100.00;100191.53;4950318;28;20022;-76
2023/10/14 03:54:08;;;;;;;0.00;0.00;;;;;;;5.96;100.00;100189.44;4968828;28;20038;-76
2023/10/14 03:56:34;;;;;;;0.00;0.00;;;;;;;5.92;100.00;100190.97;4934787;28;20031;-76
2023/10/14 03:59:03;;;;;;;0.00;0.00;;;;;;;5.88;100.00;100197.94;4971453;28;20437;-76
2023/10/14 04:02:24;;;;;;;0.00;0.00;;;;;;;5.81;100.00;100194.53;4943715;28;20038;-75
2023/10/14 04:04:18;;;;;;;0.03;0.03;;;;;;;5.72;100.00;100189.50;4946166;28;20034;-76
2023/10/14 04:09:27;;;;;;;0.00;0.00;;;;;;;5.76;100.00;100196.06;4961687;28;20035;-76
2023/10/14 04:11:59;;;;;;;0.00;0.00;;;;;;;5.80;100.00;100195.59;4969818;28;20105;-76
2023/10/14 04:14:27;;;;;;;0.00;0.00;;;;;;;5.75;100.00;100194.44;4935640;28;20085;-76
2023/10/14 04:19:44;;;;;;;0.00;0.00;;;;;;;5.81;100.00;100208.09;4950461;28;20575;-76
2023/10/14 04:22:27;;;;;;;0.00;0.00;;;;;;;5.80;100.00;100211.88;4946927;28;20042;-76
2023/10/14 04:25:07;;;;;;;0.00;0.00;;;;;;;5.78;100.00;100217.53;4942211;28;20371;-76
2023/10/14 04:27:45;;;;;;;0.10;0.10;;;;;;;5.73;100.00;100212.84;4945121;28;20037;-75
2023/10/14 04:30:24;;;;;;;0.00;0.00;;;;;;;5.80;100.00;100212.72;4952739;28;20470;-76
2023/10/14 04:35:25;;;;;;;0.00;0.00;;;;;;;5.87;100.00;100218.00;4961811;28;20045;-75
2023/10/14 04:37:52;;;;;;;0.00;0.00;;;;;;;5.89;100.00;100224.03;4946969;28;20089;-75
2023/10/14 04:43:18;;;;;;;0.00;0.00;;;;;;;5.83;100.00;100219.56;4952671;28;20082;-76
2023/10/14 04:45:52;;;;;;;0.10;0.10;;;;;;;5.82;100.00;100232.28;4963488;28;20023;-76
2023/10/14 04:48:28;;;;;;;0.00;0.00;;;;;;;5.79;100.00;100231.97;4940689;29;20108;-76
2023/10/14 04:50:56;;;;;;;0.10;0.10;;;;;;;5.77;100.00;100229.50;4947081;28;20060;-77
2023/10/14 04:53:26;;;;;;;0.00;0.00;;;;;;;5.76;100.00;100238.69;4968449;28;20112;-77
2023/10/14 04:55:55;;;;;;;0.00;0.00;;;;;;;5.72;100.00;100237.50;4962077;28;20034;-75
2023/10/14 04:58:25;;;;;;;0.00;0.00;;;;;;;5.69;100.00;100249.66;4950468;28;20058;-75
2023/10/14 05:00:52;;;;;;;0.00;0.00;;;;;;;5.66;100.00;100244.69;4942042;28;20034;-76
2023/10/14 05:03:21;;;;;;;0.00;0.00;;;;;;;5.62;100.00;100238.09;4950605;28;20112;-77
2023/10/14 05:05:56;;;;;;;0.00;0.00;;;;;;;5.64;100.00;100241.41;4934814;28;20026;-75
2023/10/14 05:08:24;;;;;;;0.00;0.00;;;;;;;5.67;100.00;100251.78;4935288;28;20422;-76
2023/10/14 05:10:51;;;;;;;0.00;0.00;;;;;;;5.72;100.00;100248.34;4936863;28;20455;-75
2023/10/14 05:13:19;;;;;;;0.00;0.00;;;;;;;5.75;100.00;100259.56;4945210;28;21123;-75
2023/10/14 05:16:11;;;;;;;0.10;0.10;;;;;;;5.78;100.00;100255.53;4969502;28;20109;-75
2023/10/14 05:18:35;;;;;;;0.00;0.00;;;;;;;5.85;100.00;100271.69;4952366;28;20497;-75
2023/10/14 05:21:12;;;;;;;0.00;0.00;;;;;;;5.83;100.00;100255.66;4948086;28;20031;-76
2023/10/14 05:23:40;;;;;;;0.00;0.00;;;;;;;5.84;100.00;100256.47;4939775;28;20031;-77
2023/10/14 05:26:09;;;;;;;0.10;0.10;;;;;;;5.86;100.00;100265.22;4950465;28;20647;-77
2023/10/14 05:28:42;;;;;;;0.00;0.00;;;;;;;5.73;100.00;100247.31;4965404;28;20034;-76
2023/10/14 05:31:10;;;;;;;0.00;0.00;;;;;;;5.79;100.00;100269.94;4943961;28;20051;-75
2023/10/14 05:33:36;;;;;;;0.00;0.00;;;;;;;5.66;100.00;100260.97;4931333;28;20648;-73
2023/10/14 05:36:06;;;;;;;0.10;0.10;;;;;;;5.65;100.00;100281.06;4933638;28;20062;-73
2023/10/14 05:38:32;;;;;;;0.00;0.00;;;;;;;5.58;100.00;100280.34;4937501;28;20035;-74
2023/10/14 05:41:06;;;;;;;0.00;0.00;;;;;;;5.44;100.00;100268.09;4935620;28;20026;-73
2023/10/14 05:43:35;;;;;;;0.00;0.00;;;;;;;5.48;100.00;100285.53;4941020;28;20031;-74
2023/10/14 05:46:12;;;;;;;0.00;0.00;;;;;;;5.42;100.00;100282.69;4933879;28;20045;-75
2023/10/14 05:48:37;;;;;;;0.00;0.00;;;;;;;5.35;100.00;100281.97;4944418;28;20150;-75
2023/10/14 05:51:02;;;;;;;0.10;0.10;;;;;;;5.35;100.00;100292.81;4914853;28;20035;-75
2023/10/14 05:53:31;;;;;;;0.00;0.00;;;;;;;5.30;100.00;100287.28;4948835;28;20418;-74
2023/10/14 05:56:11;;;;;;;0.00;0.00;;;;;;;5.34;100.00;100296.59;4928908;28;20550;-74
2023/10/14 05:58:37;;;;;;;0.10;0.10;;;;;;;5.36;100.00;100308.03;4968496;28;20121;-74
2023/10/14 06:01:10;;;;;;;0.00;0.00;;;;;;;5.32;100.00;100309.56;4928668;28;20027;-74
2023/10/14 06:03:43;;;;;;;0.00;0.00;;;;;;;5.34;100.00;100312.84;4934154;28;20050;-74
2023/10/14 06:06:16;;;;;;;0.00;0.00;;;;;;;5.32;100.00;100315.00;4943611;28;20413;-75
2023/10/14 06:08:46;;;;;;;0.00;0.00;;;;;;;5.34;100.00;100312.03;4968828;28;20026;-74
2023/10/14 06:11:13;;;;;;;0.00;0.00;;;;;;;5.30;100.00;100316.28;4944441;28;20030;-75
2023/10/14 06:13:38;;;;;;;0.00;0.00;;;;;;;5.28;100.00;100313.81;4943315;28;20030;-74
2023/10/14 06:16:09;;;;;;;0.00;0.00;;;;;;;5.31;100.00;100329.59;4945527;28;20385;-74
2023/10/14 06:18:39;;;;;;;0.00;0.00;;;;;;;5.33;100.00;100337.50;4949991;28;20041;-74
2023/10/14 06:21:06;;;;;;;0.00;0.00;;;;;;;5.28;100.00;100323.84;4930889;28;20027;-74
2023/10/14 06:23:34;;;;;;;0.00;0.00;;;;;;;5.34;100.00;100334.56;4947596;28;20019;-75
2023/10/14 06:26:00;;;;;;;0.00;0.00;;;;;;;5.28;100.00;100340.09;4950044;28;20023;-74
2023/10/14 06:28:27;;;;;;;0.00;0.00;;;;;;;5.18;100.00;100327.09;4942274;28;20077;-74
2023/10/14 06:30:53;;;;;;;0.00;0.00;;;;;;;5.14;100.00;100323.19;4947774;28;20030;-74
2023/10/14 06:33:19;;;;;;;0.00;0.00;;;;;;;5.17;100.00;100328.16;4956911;28;20031;-74
2023/10/14 06:35:45;;;;;;;0.00;0.00;;;;;;;5.17;100.00;100337.13;4965599;28;20021;-74
2023/10/14 06:38:17;;;;;;;0.00;0.00;;;;;;;5.28;100.00;100359.91;4931130;28;20058;-73
2023/10/14 06:40:54;;;;;;;0.00;0.00;;;;;;;5.21;100.00;100359.16;4952032;28;20506;-75
2023/10/14 06:43:33;;;;;;;0.00;0.00;;;;;;;5.34;100.00;100372.53;4945668;28;20030;-74
2023/10/14 06:45:59;;;;;;;0.10;0.10;;;;;;;5.34;100.00;100369.81;4963863;28;20112;-75
2023/10/14 06:48:25;;;;;;;0.00;0.00;;;;;;;5.30;100.00;100360.50;4928206;29;20050;-74
2023/10/14 06:50:54;;;;;;;0.00;0.00;;;;;;;5.42;100.00;100379.50;4943982;28;20045;-75
2023/10/14 06:53:20;;;;;;;0.10;0.10;;;;;;;5.48;100.00;100383.19;4924851;29;20048;-75
2023/10/14 06:55:45;;;;;;;0.10;0.10;;;;;;;5.52;100.00;100387.91;4917284;29;20825;-75
2023/10/14 06:58:13;;;;;;;0.00;0.00;;;;;;;5.59;100.00;100401.34;4886397;29;20044;-75
2023/10/14 07:00:40;;;;;;;0.00;0.00;;;;;;;5.62;100.00;100400.88;4924423;29;20489;-76
2023/10/14 07:03:12;;;;;;;0.00;0.00;;;;;;;5.68;100.00;100405.38;4935902;28;20032;-75
2023/10/14 07:05:46;;;;;;;0.00;0.00;;;;;;;5.74;100.00;100409.88;4921816;29;20453;-75
2023/10/14 07:08:15;;;;;;;0.00;0.00;;;;;;;5.83;100.00;100404.09;4921208;29;20027;-75
2023/10/14 07:10:43;;;;;;;0.00;0.00;;;;;;;5.92;100.00;100421.69;4933877;29;20119;-76
2023/10/14 07:13:10;;;;;;;0.00;0.00;;;;;;;5.75;100.00;100394.41;4919999;29;20532;-76
2023/10/14 07:15:37;;;;;;;0.00;0.00;;;;;;;5.95;100.00;100423.91;4922978;29;20035;-75
2023/10/14 07:18:22;;;;;;;0.00;0.00;;;;;;;6.04;100.00;100408.97;4945067;28;20026;-75
2023/10/14 07:21:03;;;;;;;0.00;0.00;;;;;;;6.65;100.00;100430.38;4934445;28;20370;-76
2023/10/14 07:23:36;;;;;;;0.00;0.00;;;;;;;7.31;100.00;100421.88;4927734;29;20046;-74
2023/10/14 07:26:29;;;;;;;0.00;0.00;;;;;;;8.33;100.00;100449.13;4926390;29;20110;-75
2023/10/14 07:28:56;;;;;;;0.00;0.00;;;;;;;9.38;100.00;100459.16;4923262;29;20023;-75
2023/10/14 07:31:25;;;;;;;0.00;0.00;;;;;;;10.24;100.00;100455.53;4927180;29;20489;-74
2023/10/14 07:33:52;;;;;;;0.00;0.00;;;;;;;10.82;94.93;100465.72;4928365;29;20036;-76
2023/10/14 07:36:18;;;;;;;0.00;0.00;;;;;;;11.17;91.86;100445.06;4931213;28;20484;-75
2023/10/14 07:38:44;;;;;;;0.10;0.10;;;;;;;11.95;89.55;100451.50;4926468;28;20044;-78
2023/10/14 07:41:13;;;;;;;0.00;0.00;;;;;;;12.77;84.56;100461.47;4914836;29;20509;-75
2023/10/14 07:43:38;;;;;;;0.00;0.00;;;;;;;12.59;81.94;100463.72;4925555;29;20503;-77
2023/10/14 07:46:08;;;;;;;0.00;0.00;;;;;;;12.42;84.20;100490.66;4931770;29;20066;-77
2023/10/14 07:48:39;;;;;;;0.00;0.00;;;;;;;13.32;80.31;100489.78;4927143;29;20058;-77
2023/10/14 07:51:06;;;;;;;0.00;0.00;;;;;;;14.19;74.70;100487.53;4937330;29;20399;-77
2023/10/14 07:53:31;;;;;;;0.00;0.00;;;;;;;14.94;71.04;100480.75;4761680;29;4107478;-76
2023/10/14 07:55:57;;;;;;;0.00;0.00;;;;;;;15.68;68.21;100500.41;4912780;29;20418;-76
2023/10/14 07:58:33;;;;;;;0.00;0.00;;;;;;;16.61;65.48;100498.06;4931687;28;20050;-76
2023/10/14 08:01:06;;;;;;;0.00;0.00;;;;;;;17.39;61.39;100496.22;4933977;29;20079;-77
2023/10/14 08:03:31;;;;;;;0.03;0.03;;;;;;;17.78;58.12;100496.72;4945098;28;20062;-77
2023/10/14 08:06:05;;;;;;;0.00;0.00;;;;;;;18.28;56.64;100482.81;4928557;29;20150;-78
2023/10/14 08:08:31;;;;;;;0.05;0.05;;;;;;;18.76;55.44;100497.88;4926250;29;20028;-76
2023/10/14 08:11:00;;;;;;;0.00;0.00;;;;;;;19.27;53.85;100501.13;4936646;28;20030;-75
2023/10/14 08:13:31;;;;;;;0.00;0.00;;;;;;;19.87;51.35;100507.09;4919631;29;20035;-76
2023/10/14 08:31:16;;;;;;;;;;;;;;;;;;;;;
2023/10/14 08:37:04;;;;;;;;;;;;;;;;;;;;;
2023/10/14 08:40:39;;;;;;;0.00;0.00;;;;;;;23.30;41.76;100519.09;4850399;29;20063;-76
2023/10/14 08:43:16;;;;;;;0.00;0.00;;;;;;;23.88;42.33;100516.09;4861383;29;20551;-79
2023/10/14 08:45:55;;;;;;;0.00;0.00;;;;;;;24.29;41.16;100545.97;4891670;28;20043;-77
2023/10/14 08:48:43;;;;;;;0.00;0.00;;;;;;;24.16;40.56;100517.28;4922195;29;20019;-77
2023/10/14 08:51:39;;;;;;;0.00;0.00;;;;;;;24.35;40.05;100550.13;4924361;29;20036;-77
2023/10/14 08:55:10;;;;;;;;;;;;;;;;;;;;;
2023/10/14 08:58:17;;;;;;;0.00;0.00;;;;;;;24.43;38.77;100551.94;4889035;28;20047;-77
2023/10/14 09:00:51;;;;;;;0.00;0.00;;;;;;;24.21;38.36;100542.97;4941890;28;20035;-77
2023/10/14 09:03:49;;;;;;;;;;;;;;;;;;;;;
2023/10/14 09:06:18;;;;;;;0.00;0.00;;;;;;;23.21;40.40;100590.13;4945937;28;20039;-78
2023/10/14 09:09:02;;;;;;;0.00;0.00;;;;;;;23.05;41.38;100543.38;4935503;29;20544;-77
2023/10/14 09:11:34;;;;;;;0.00;0.00;;;;;;;23.67;40.41;100585.22;4925252;28;20041;-77
2023/10/14 09:14:14;;;;;;;0.00;0.00;;;;;;;24.33;39.68;100588.78;4944655;28;20070;-77
2023/10/14 09:16:54;;;;;;;0.00;0.00;;;;;;;25.61;38.52;100562.53;4947217;28;20117;-80
2023/10/14 09:19:42;;;;;;;0.00;0.00;;;;;;;26.61;35.74;100557.38;4930958;28;20688;-77
2023/10/14 09:22:27;;;;;;;0.00;0.00;;;;;;;27.41;35.20;100568.00;4936783;28;20096;-77
2023/10/14 09:28:08;;;;;;;0.00;0.00;;;;;;;29.44;33.59;100597.25;4925508;29;20126;-76
2023/10/14 09:33:45;;;;;;;0.00;0.00;;;;;;;26.74;33.00;100588.09;4918561;29;20039;-78
2023/10/14 09:36:14;;;;;;;0.00;0.00;;;;;;;23.50;38.53;100575.13;4913110;29;20032;-77
2023/10/14 09:39:06;;;;;;;;;;;;;;;;;;;;;
2023/10/14 09:41:59;;;;;;;0.00;0.00;;;;;;;18.59;47.97;100584.44;4927288;29;20087;-79
2023/10/14 09:44:27;;;;;;;0.00;0.00;;;;;;;17.53;49.84;100620.59;4941127;29;20042;-76
2023/10/14 09:47:15;;;;;;;0.00;0.00;;;;;;;16.77;51.13;100615.38;4940318;28;20023;-76
2023/10/14 09:50:12;;;;;;;;;;;;;;;;;;;;;
2023/10/14 09:52:42;;;;;;;0.00;0.00;;;;;;;22.97;40.56;100583.34;4928334;28;20505;-77
2023/10/14 09:55:13;;;;;;;0.00;0.00;;;;;;;24.11;37.53;100621.69;4934008;28;20024;-76
2023/10/14 09:57:43;;;;;;;0.00;0.00;;;;;;;26.58;33.69;100625.41;4927089;29;20050;-76
2023/10/14 10:00:10;;;;;;;0.00;0.00;;;;;;;28.86;29.20;100618.44;4912734;29;20023;-76
2023/10/14 10:02:38;;;;;;;0.00;0.00;;;;;;;31.15;27.68;100634.22;4923666;29;20070;-76
2023/10/14 10:05:07;;;;;;;0.00;0.00;;;;;;;32.74;25.08;100637.50;4915757;29;20035;-75
2023/10/14 10:08:17;;;;;;;0.00;0.00;;;;;;;31.50;25.19;100644.72;4909893;29;20027;-76
2023/10/14 10:10:47;;;;;;;0.00;0.00;;;;;;;31.67;23.56;100636.63;4902514;29;20039;-76
2023/10/14 10:13:13;;;;;;;0.00;0.00;;;;;;;31.70;22.64;100641.47;4931318;29;20048;-76
2023/10/14 10:15:44;;;;;;;0.00;0.00;;;;;;;32.04;22.67;100635.34;4940689;29;20055;-76
2023/10/14 10:18:12;;;;;;;0.00;0.00;;;;;;;32.85;22.93;100623.28;4930151;29;20064;-75
2023/10/14 10:20:48;;;;;;;0.00;0.00;;;;;;;33.57;21.00;100634.84;4922189;29;20042;-77
2023/10/14 10:23:17;;;;;;;0.00;0.00;;;;;;;34.55;20.52;100633.75;4924340;29;20192;-75
2023/10/14 10:25:53;;;;;;;0.00;0.00;;;;;;;34.74;20.01;100635.91;4932375;29;20059;-76
2023/10/14 10:28:27;;;;;;;0.00;0.00;;;;;;;33.86;20.27;100651.59;4907899;29;20501;-76
2023/10/14 10:30:58;;;;;;;0.00;0.00;;;;;;;33.29;20.85;100652.91;4927772;29;20486;-75
2023/10/14 10:33:45;;;;;;;0.00;0.00;;;;;;;28.63;24.21;100633.47;4921343;29;21053;-76
2023/10/14 10:36:12;;;;;;;0.00;0.00;;;;;;;27.22;27.53;100641.84;4932272;29;20028;-75
2023/10/14 10:38:38;;;;;;;0.00;0.00;;;;;;;27.60;27.12;100634.47;4914763;29;20016;-76
2023/10/14 10:41:24;;;;;;;0.00;0.00;;;;;;;30.29;24.01;100641.22;4951091;28;20034;-76
2023/10/14 10:43:50;;;;;;;0.00;0.00;;;;;;;29.62;23.53;100659.34;4923697;29;20031;-76
2023/10/14 10:46:29;;;;;;;0.00;0.00;;;;;;;27.32;26.01;100652.44;4927469;29;20035;-76
2023/10/14 10:48:54;;;;;;;0.00;0.00;;;;;;;28.30;25.89;100659.53;4917356;29;20467;-75
2023/10/14 10:51:21;;;;;;;0.00;0.00;;;;;;;27.59;25.35;100663.72;4933908;29;20028;-76
2023/10/14 10:53:49;;;;;;;0.00;0.00;;;;;;;26.56;28.41;100653.03;4899031;29;20060;-76
2023/10/14 10:56:18;;;;;;;0.00;0.00;;;;;;;28.52;26.86;100649.38;4924148;28;20389;-78
2023/10/14 10:58:50;;;;;;;0.00;0.00;;;;;;;28.75;25.84;100656.91;4923794;29;20036;-77
2023/10/14 11:01:15;;;;;;;0.00;0.00;;;;;;;27.10;25.68;100664.47;4927740;28;20024;-75
2023/10/14 11:03:45;;;;;;;0.00;0.00;;;;;;;25.55;28.09;100659.19;4915136;29;20484;-77
2023/10/14 11:16:44;;;;;;;0.00;0.00;;;;;;;28.35;24.76;100651.59;4821594;29;20045;-75
2023/10/14 11:19:09;;;;;;;0.00;0.00;;;;;;;25.40;28.59;100660.81;4824173;29;20422;-75
2023/10/14 11:21:37;;;;;;;0.00;0.00;;;;;;;26.80;27.90;100670.75;4923704;29;20050;-76
2023/10/14 11:24:05;;;;;;;0.00;0.00;;;;;;;30.19;25.86;100638.38;4901391;29;20028;-75
2023/10/14 11:26:30;;;;;;;0.00;0.00;;;;;;;32.75;22.85;100675.09;4947733;28;20079;-75
2023/10/14 11:28:59;;;;;;;0.00;0.00;;;;;;;29.19;24.15;100667.38;4946538;28;20023;-77
2023/10/14 11:31:24;;;;;;;0.00;0.00;;;;;;;26.22;27.48;100658.31;4916241;29;20060;-75
2023/10/14 11:33:55;;;;;;;0.00;0.00;;;;;;;24.00;30.31;100659.66;4913183;29;20031;-76
2023/10/14 11:36:25;;;;;;;0.00;0.00;;;;;;;22.28;32.98;100660.88;4932035;29;20032;-75
2023/10/14 11:38:53;;;;;;;0.00;0.00;;;;;;;21.73;35.00;100685.81;4930457;29;20879;-73
2023/10/14 11:41:20;;;;;;;0.00;0.00;;;;;;;21.40;35.63;100678.06;4936708;29;20111;-75
2023/10/14 11:43:46;;;;;;;0.00;0.00;;;;;;;22.87;35.56;100684.97;4921903;29;20063;-75
2023/10/14 11:46:12;;;;;;;0.00;0.00;;;;;;;27.86;27.96;100683.41;4932786;29;20027;-76
2023/10/14 11:48:38;;;;;;;0.00;0.00;;;;;;;29.77;24.86;100672.34;4929551;29;20055;-75
2023/10/14 11:51:11;;;;;;;0.00;0.00;;;;;;;32.56;21.74;100671.53;4914893;29;20035;-76
2023/10/14 11:53:44;;;;;;;0.00;0.00;;;;;;;34.66;18.69;100676.19;4930652;29;20079;-78
2023/10/14 11:56:16;;;;;;;0.00;0.00;;;;;;;35.84;18.17;100693.47;4909090;28;20030;-76
2023/10/14 11:58:42;;;;;;;0.00;0.00;;;;;;;36.68;17.89;100688.53;4939089;29;20121;-76
2023/10/14 12:01:11;;;;;;;0.00;0.00;;;;;;;37.69;16.39;100689.00;4929436;28;20580;-76
2023/10/14 12:03:38;;;;;;;0.00;0.00;;;;;;;38.05;17.08;100684.38;4948149;28;20083;-76
2023/10/14 12:06:07;;;;;;;0.00;0.00;;;;;;;36.19;17.07;100688.31;4931652;28;20035;-75
2023/10/14 12:08:37;;;;;;;0.00;0.00;;;;;;;38.45;17.04;100684.09;4936529;29;20062;-75
2023/10/14 12:11:04;;;;;;;0.00;0.00;;;;;;;38.69;14.80;100696.00;4934385;28;20027;-77
2023/10/14 12:13:30;;;;;;;0.00;0.00;;;;;;;33.36;18.84;100688.88;4951198;28;20066;-76
2023/10/14 12:15:56;;;;;;;0.00;0.00;;;;;;;34.89;18.56;100684.81;4934029;28;20085;-75
2023/10/14 12:18:22;;;;;;;0.00;0.00;;;;;;;36.15;17.44;100691.22;4950742;28;20429;-76
2023/10/14 12:20:49;;;;;;;0.00;0.00;;;;;;;39.12;16.63;100693.09;4936176;29;20123;-74
2023/10/14 12:23:19;;;;;;;0.00;0.00;;;;;;;41.93;12.85;100685.28;4948031;28;20023;-75
2023/10/14 12:25:49;;;;;;;0.00;0.00;;;;;;;43.90;13.46;100695.06;4952177;28;20097;-75
2023/10/14 12:28:25;;;;;;;0.00;0.00;;;;;;;45.19;12.37;100694.16;4905154;28;20038;-75
2023/10/14 12:30:53;;;;;;;0.00;0.00;;;;;;;45.58;12.29;100691.81;4949844;28;20031;-76
2023/10/14 12:33:22;;;;;;;0.00;0.00;;;;;;;41.33;14.54;100690.31;4929337;28;20016;-75
2023/10/14 12:35:51;;;;;;;0.00;0.00;;;;;;;40.40;14.92;100683.31;4916630;29;20114;-75
2023/10/14 12:38:20;;;;;;;0.00;0.00;;;;;;;41.11;14.29;100679.72;4926796;28;20422;-74
2023/10/14 12:40:49;;;;;;;0.00;0.00;;;;;;;42.45;13.01;100686.19;4949370;28;20048;-77
2023/10/14 12:43:18;;;;;;;0.00;0.00;;;;;;;44.64;12.17;100687.78;4930971;29;20043;-76
2023/10/14 12:45:49;;;;;;;0.00;0.00;;;;;;;45.79;12.47;100683.13;4943395;28;20016;-76
2023/10/14 12:48:24;;;;;;;0.00;0.00;;;;;;;46.73;12.87;100691.72;4930611;29;20028;-76
2023/10/14 12:50:56;;;;;;;0.00;0.00;;;;;;;43.21;12.08;100686.25;4943640;28;20042;-76
2023/10/14 12:53:27;;;;;;;0.00;0.00;;;;;;;41.36;13.25;100669.28;4929809;29;20047;-76
2023/10/14 12:55:53;;;;;;;0.00;0.00;;;;;;;42.51;13.43;100661.28;4926908;29;20049;-77
2023/10/14 12:58:20;;;;;;;0.00;0.00;;;;;;;45.03;12.63;100686.81;4931980;29;20031;-75
2023/10/14 13:00:48;;;;;;;0.00;0.00;;;;;;;45.87;11.20;100680.63;4909656;29;20119;-76
2023/10/14 13:03:14;;;;;;;0.00;0.00;;;;;;;47.43;10.61;100698.22;4926039;29;20028;-76
2023/10/14 13:05:39;;;;;;;0.00;0.00;;;;;;;48.33;10.51;100704.31;4912583;29;20036;-76
2023/10/14 13:08:18;;;;;;;;;;;;;;;;;;;;;
2023/10/14 13:10:46;;;;;;;0.00;0.00;;;;;;;40.98;12.98;100673.31;4929510;29;20394;-75